sensor_id;sensor_type;location;lat;lon;timestamp;temperature;humidity
7894;DHT22;51343;51.396;6.656;2022-12-07T00:00:54;4.70;99.90
7894;DHT22;51343;51.396;6.656;2022-12-07T00:03:21;4.70;99.90
7894;DHT22;51343;51.396;6.656;2022-12-07T00:05:48;4.70;99.90
7894;DHT22;51343;51.396;6.656;2022-12-07T00:08:15;4.70;99.90
7894;DHT22;51343;51.396;6.656;2022-12-07T00:10:41;4.70;99.90
7894;DHT22;51343;51.396;6.656;2022-12-07T00:13:08;4.70;99.90
7894;DHT22;51343;51.396;6.656;2022-12-07T00:15:38;4.70;99.90
7894;DHT22;51343;51.396;6.656;2022-12-07T00:18:05;4.70;99.90
7894;DHT22;51343;51.396;6.656;2022-12-07T00:20:32;4.70;99.90
7894;DHT22;51343;51.396;6.656;2022-12-07T00:22:59;4.80;99.90
7894;DHT22;51343;51.396;6.656;2022-12-07T00:25:26;4.80;99.90
7894;DHT22;51343;51.396;6.656;2022-12-07T00:27:53;4.70;99.90
7894;DHT22;51343;51.396;6.656;2022-12-07T00:30:21;4.70;99.90
7894;DHT22;51343;51.396;6.656;2022-12-07T00:32:50;4.80;99.90
7894;DHT22;51343;51.396;6.656;2022-12-07T00:35:16;4.70;99.90
7894;DHT22;51343;51.396;6.656;2022-12-07T00:37:43;4.80;99.90
7894;DHT22;51343;51.396;6.656;2022-12-07T00:40:10;4.70;99.90
7894;DHT22;51343;51.396;6.656;2022-12-07T00:42:37;4.80;99.90
7894;DHT22;51343;51.396;6.656;2022-12-07T00:45:05;4.80;99.90
7894;DHT22;51343;51.396;6.656;2022-12-07T00:47:34;4.70;99.90
7894;DHT22;51343;51.396;6.656;2022-12-07T00:50:03;4.70;99.90
7894;DHT22;51343;51.396;6.656;2022-12-07T00:52:30;4.70;99.90
7894;DHT22;51343;51.396;6.656;2022-12-07T00:54:57;4.70;99.90
7894;DHT22;51343;51.396;6.656;2022-12-07T00:57:30;4.70;99.90
7894;DHT22;51343;51.396;6.656;2022-12-07T00:59:57;4.70;99.90
7894;DHT22;51343;51.396;6.656;2022-12-07T01:02:25;4.70;99.90
7894;DHT22;51343;51.396;6.656;2022-12-07T01:04:52;4.70;99.90
7894;DHT22;51343;51.396;6.656;2022-12-07T01:07:21;4.70;99.90
7894;DHT22;51343;51.396;6.656;2022-12-07T01:09:48;4.70;99.90
7894;DHT22;51343;51.396;6.656;2022-12-07T01:12:14;4.60;99.90
7894;DHT22;51343;51.396;6.656;2022-12-07T01:14:41;4.60;99.90
7894;DHT22;51343;51.396;6.656;2022-12-07T01:17:08;4.60;99.90
7894;DHT22;51343;51.396;6.656;2022-12-07T01:19:35;4.60;99.90
7894;DHT22;51343;51.396;6.656;2022-12-07T01:22:02;4.60;99.90
7894;DHT22;51343;51.396;6.656;2022-12-07T01:24:31;4.60;99.90
7894;DHT22;51343;51.396;6.656;2022-12-07T01:26:58;4.50;99.90
7894;DHT22;51343;51.396;6.656;2022-12-07T01:29:25;4.50;99.90
7894;DHT22;51343;51.396;6.656;2022-12-07T01:31:52;4.50;99.90
7894;DHT22;51343;51.396;6.656;2022-12-07T01:34:19;4.50;99.90
7894;DHT22;51343;51.396;6.656;2022-12-07T01:36:45;4.40;99.90
7894;DHT22;51343;51.396;6.656;2022-12-07T01:39:12;4.40;99.90
7894;DHT22;51343;51.396;6.656;2022-12-07T01:41:41;4.30;99.90
7894;DHT22;51343;51.396;6.656;2022-12-07T01:44:13;4.30;99.90
7894;DHT22;51343;51.396;6.656;2022-12-07T01:46:40;4.30;99.90
7894;DHT22;51343;51.396;6.656;2022-12-07T01:49:09;4.30;99.90
7894;DHT22;51343;51.396;6.656;2022-12-07T01:51:37;4.30;99.90
7894;DHT22;51343;51.396;6.656;2022-12-07T01:54:05;4.30;99.90
7894;DHT22;51343;51.396;6.656;2022-12-07T01:56:32;4.30;99.90
7894;DHT22;51343;51.396;6.656;2022-12-07T01:59:01;4.20;99.90
7894;DHT22;51343;51.396;6.656;2022-12-07T02:01:28;4.20;99.90
7894;DHT22;51343;51.396;6.656;2022-12-07T02:03:55;4.20;99.90
7894;DHT22;51343;51.396;6.656;2022-12-07T02:06:22;4.20;99.90
7894;DHT22;51343;51.396;6.656;2022-12-07T02:08:50;4.20;99.90
7894;DHT22;51343;51.396;6.656;2022-12-07T02:11:17;4.20;99.90
7894;DHT22;51343;51.396;6.656;2022-12-07T02:13:44;4.10;99.90
7894;DHT22;51343;51.396;6.656;2022-12-07T02:16:16;4.10;99.90
7894;DHT22;51343;51.396;6.656;2022-12-07T02:18:48;4.10;99.90
7894;DHT22;51343;51.396;6.656;2022-12-07T02:21:19;4.10;99.90
7894;DHT22;51343;51.396;6.656;2022-12-07T02:23:55;4.10;99.90
7894;DHT22;51343;51.396;6.656;2022-12-07T02:26:55;4.10;99.90
7894;DHT22;51343;51.396;6.656;2022-12-07T02:29:31;4.20;99.90
7894;DHT22;51343;51.396;6.656;2022-12-07T02:32:02;4.20;99.90
7894;DHT22;51343;51.396;6.656;2022-12-07T02:34:32;4.20;99.90
7894;DHT22;51343;51.396;6.656;2022-12-07T02:37:01;4.20;99.90
7894;DHT22;51343;51.396;6.656;2022-12-07T02:39:31;4.10;99.90
7894;DHT22;51343;51.396;6.656;2022-12-07T02:42:01;4.10;99.90
7894;DHT22;51343;51.396;6.656;2022-12-07T02:44:30;4.10;99.90
7894;DHT22;51343;51.396;6.656;2022-12-07T02:46:59;4.00;99.90
7894;DHT22;51343;51.396;6.656;2022-12-07T02:49:27;4.00;99.90
7894;DHT22;51343;51.396;6.656;2022-12-07T02:51:55;4.00;99.90
7894;DHT22;51343;51.396;6.656;2022-12-07T02:54:25;3.90;99.90
7894;DHT22;51343;51.396;6.656;2022-12-07T02:56:53;3.90;99.90
7894;DHT22;51343;51.396;6.656;2022-12-07T02:59:26;3.80;99.90
7894;DHT22;51343;51.396;6.656;2022-12-07T03:01:59;3.80;99.90
7894;DHT22;51343;51.396;6.656;2022-12-07T03:04:33;3.70;99.90
7894;DHT22;51343;51.396;6.656;2022-12-07T03:07:16;3.70;99.90
7894;DHT22;51343;51.396;6.656;2022-12-07T03:09:45;3.60;99.90
7894;DHT22;51343;51.396;6.656;2022-12-07T03:12:17;3.60;99.90
7894;DHT22;51343;51.396;6.656;2022-12-07T03:14:46;3.60;99.90
7894;DHT22;51343;51.396;6.656;2022-12-07T03:17:16;3.50;99.90
7894;DHT22;51343;51.396;6.656;2022-12-07T03:19:45;3.50;99.90
7894;DHT22;51343;51.396;6.656;2022-12-07T03:22:13;3.60;99.90
7894;DHT22;51343;51.396;6.656;2022-12-07T03:24:41;3.60;99.90
7894;DHT22;51343;51.396;6.656;2022-12-07T03:27:13;3.60;99.90
7894;DHT22;51343;51.396;6.656;2022-12-07T03:29:42;3.50;99.90
7894;DHT22;51343;51.396;6.656;2022-12-07T03:32:12;3.50;99.90
7894;DHT22;51343;51.396;6.656;2022-12-07T03:34:43;3.40;99.90
7894;DHT22;51343;51.396;6.656;2022-12-07T03:37:12;3.40;99.90
7894;DHT22;51343;51.396;6.656;2022-12-07T03:39:41;3.30;99.90
7894;DHT22;51343;51.396;6.656;2022-12-07T03:42:11;3.30;99.90
7894;DHT22;51343;51.396;6.656;2022-12-07T03:44:45;3.20;99.90
7894;DHT22;51343;51.396;6.656;2022-12-07T03:47:12;3.10;99.90
7894;DHT22;51343;51.396;6.656;2022-12-07T03:49:42;3.20;99.90
7894;DHT22;51343;51.396;6.656;2022-12-07T03:52:15;3.10;99.90
7894;DHT22;51343;51.396;6.656;2022-12-07T03:54:45;3.10;99.90
7894;DHT22;51343;51.396;6.656;2022-12-07T03:57:14;3.20;99.90
7894;DHT22;51343;51.396;6.656;2022-12-07T03:59:42;3.30;99.90
7894;DHT22;51343;51.396;6.656;2022-12-07T04:02:09;3.30;99.90
7894;DHT22;51343;51.396;6.656;2022-12-07T04:04:48;3.30;99.90
7894;DHT22;51343;51.396;6.656;2022-12-07T04:07:15;3.40;99.90
7894;DHT22;51343;51.396;6.656;2022-12-07T04:09:42;3.40;99.90
7894;DHT22;51343;51.396;6.656;2022-12-07T04:12:09;3.40;99.90
7894;DHT22;51343;51.396;6.656;2022-12-07T04:14:36;3.40;99.90
7894;DHT22;51343;51.396;6.656;2022-12-07T04:17:02;3.40;99.90
7894;DHT22;51343;51.396;6.656;2022-12-07T04:19:30;3.50;99.90
7894;DHT22;51343;51.396;6.656;2022-12-07T04:22:00;3.50;99.90
7894;DHT22;51343;51.396;6.656;2022-12-07T04:24:27;3.50;99.90
7894;DHT22;51343;51.396;6.656;2022-12-07T04:26:54;3.60;99.90
7894;DHT22;51343;51.396;6.656;2022-12-07T04:29:21;3.60;99.90
7894;DHT22;51343;51.396;6.656;2022-12-07T04:31:58;3.60;99.90
7894;DHT22;51343;51.396;6.656;2022-12-07T04:34:25;3.50;99.90
7894;DHT22;51343;51.396;6.656;2022-12-07T04:36:52;3.50;99.90
7894;DHT22;51343;51.396;6.656;2022-12-07T04:39:22;3.40;99.90
7894;DHT22;51343;51.396;6.656;2022-12-07T04:41:49;3.30;99.90
7894;DHT22;51343;51.396;6.656;2022-12-07T04:44:16;3.20;99.90
7894;DHT22;51343;51.396;6.656;2022-12-07T04:46:43;3.20;99.90
7894;DHT22;51343;51.396;6.656;2022-12-07T04:49:10;3.20;99.90
7894;DHT22;51343;51.396;6.656;2022-12-07T04:51:37;3.20;99.90
7894;DHT22;51343;51.396;6.656;2022-12-07T04:54:04;3.10;99.90
7894;DHT22;51343;51.396;6.656;2022-12-07T04:56:33;3.10;99.90
7894;DHT22;51343;51.396;6.656;2022-12-07T04:59:01;3.10;99.90
7894;DHT22;51343;51.396;6.656;2022-12-07T05:01:28;3.10;99.90
7894;DHT22;51343;51.396;6.656;2022-12-07T05:04:03;3.10;99.90
7894;DHT22;51343;51.396;6.656;2022-12-07T05:06:30;3.00;99.90
7894;DHT22;51343;51.396;6.656;2022-12-07T05:08:57;3.10;99.90
7894;DHT22;51343;51.396;6.656;2022-12-07T05:11:23;3.10;99.90
7894;DHT22;51343;51.396;6.656;2022-12-07T05:14:13;3.20;99.90
7894;DHT22;51343;51.396;6.656;2022-12-07T05:16:40;3.20;99.90
7894;DHT22;51343;51.396;6.656;2022-12-07T05:19:07;3.30;99.90
7894;DHT22;51343;51.396;6.656;2022-12-07T05:21:35;3.30;99.90
7894;DHT22;51343;51.396;6.656;2022-12-07T05:24:02;3.30;99.90
7894;DHT22;51343;51.396;6.656;2022-12-07T05:26:29;3.30;99.90
7894;DHT22;51343;51.396;6.656;2022-12-07T05:29:04;3.30;99.90
7894;DHT22;51343;51.396;6.656;2022-12-07T05:31:32;3.30;99.90
7894;DHT22;51343;51.396;6.656;2022-12-07T05:34:12;3.30;99.90
7894;DHT22;51343;51.396;6.656;2022-12-07T05:36:39;3.30;99.90
7894;DHT22;51343;51.396;6.656;2022-12-07T05:39:06;3.30;99.90
7894;DHT22;51343;51.396;6.656;2022-12-07T05:41:40;3.20;99.90
7894;DHT22;51343;51.396;6.656;2022-12-07T05:44:26;3.30;99.90
7894;DHT22;51343;51.396;6.656;2022-12-07T05:46:55;3.30;99.90
7894;DHT22;51343;51.396;6.656;2022-12-07T05:49:22;3.30;99.90
7894;DHT22;51343;51.396;6.656;2022-12-07T05:51:49;3.30;99.90
7894;DHT22;51343;51.396;6.656;2022-12-07T05:54:16;3.30;99.90
7894;DHT22;51343;51.396;6.656;2022-12-07T05:56:42;3.30;99.90
7894;DHT22;51343;51.396;6.656;2022-12-07T06:01:48;3.30;99.90
7894;DHT22;51343;51.396;6.656;2022-12-07T06:04:16;3.30;99.90
7894;DHT22;51343;51.396;6.656;2022-12-07T06:06:49;3.30;99.90
7894;DHT22;51343;51.396;6.656;2022-12-07T06:09:24;3.30;99.90
7894;DHT22;51343;51.396;6.656;2022-12-07T06:11:53;3.30;99.90
7894;DHT22;51343;51.396;6.656;2022-12-07T06:14:39;3.40;99.90
7894;DHT22;51343;51.396;6.656;2022-12-07T06:17:06;3.40;99.90
7894;DHT22;51343;51.396;6.656;2022-12-07T06:19:36;3.40;99.90
7894;DHT22;51343;51.396;6.656;2022-12-07T06:22:06;3.40;99.90
7894;DHT22;51343;51.396;6.656;2022-12-07T06:24:36;3.30;99.90
7894;DHT22;51343;51.396;6.656;2022-12-07T06:27:03;3.30;99.90
7894;DHT22;51343;51.396;6.656;2022-12-07T06:29:30;3.40;99.90
7894;DHT22;51343;51.396;6.656;2022-12-07T06:32:03;3.30;99.90
7894;DHT22;51343;51.396;6.656;2022-12-07T06:34:39;3.30;99.90
7894;DHT22;51343;51.396;6.656;2022-12-07T06:37:09;3.30;99.90
7894;DHT22;51343;51.396;6.656;2022-12-07T06:39:36;3.30;99.90
7894;DHT22;51343;51.396;6.656;2022-12-07T06:42:23;3.30;99.90
7894;DHT22;51343;51.396;6.656;2022-12-07T06:44:50;3.30;99.90
7894;DHT22;51343;51.396;6.656;2022-12-07T06:50:26;3.20;99.90
7894;DHT22;51343;51.396;6.656;2022-12-07T06:58:30;3.20;99.90
7894;DHT22;51343;51.396;6.656;2022-12-07T07:00:57;3.20;99.90
7894;DHT22;51343;51.396;6.656;2022-12-07T07:03:29;3.20;99.90
7894;DHT22;51343;51.396;6.656;2022-12-07T07:05:58;3.20;99.90
7894;DHT22;51343;51.396;6.656;2022-12-07T07:08:25;3.20;99.90
7894;DHT22;51343;51.396;6.656;2022-12-07T07:10:58;3.20;99.90
7894;DHT22;51343;51.396;6.656;2022-12-07T07:13:39;3.20;99.90
7894;DHT22;51343;51.396;6.656;2022-12-07T07:16:09;3.00;99.90
7894;DHT22;51343;51.396;6.656;2022-12-07T07:18:37;2.90;99.90
7894;DHT22;51343;51.396;6.656;2022-12-07T07:21:06;2.90;99.90
7894;DHT22;51343;51.396;6.656;2022-12-07T07:23:33;2.80;99.90
7894;DHT22;51343;51.396;6.656;2022-12-07T07:26:00;2.80;99.90
7894;DHT22;51343;51.396;6.656;2022-12-07T07:28:28;2.70;99.90
7894;DHT22;51343;51.396;6.656;2022-12-07T07:33:51;2.60;99.90
7894;DHT22;51343;51.396;6.656;2022-12-07T07:36:28;2.60;99.90
7894;DHT22;51343;51.396;6.656;2022-12-07T07:39:00;2.70;99.90
7894;DHT22;51343;51.396;6.656;2022-12-07T07:44:18;2.60;99.90
7894;DHT22;51343;51.396;6.656;2022-12-07T07:46:46;2.60;99.90
7894;DHT22;51343;51.396;6.656;2022-12-07T07:55:10;2.60;99.90
7894;DHT22;51343;51.396;6.656;2022-12-07T07:57:53;2.60;99.90
7894;DHT22;51343;51.396;6.656;2022-12-07T08:00:35;2.50;99.90
7894;DHT22;51343;51.396;6.656;2022-12-07T08:08:12;2.60;99.90
7894;DHT22;51343;51.396;6.656;2022-12-07T08:10:42;2.60;99.90
7894;DHT22;51343;51.396;6.656;2022-12-07T08:13:17;2.60;99.90
7894;DHT22;51343;51.396;6.656;2022-12-07T08:15:46;2.60;99.90
7894;DHT22;51343;51.396;6.656;2022-12-07T08:18:16;2.60;99.90
7894;DHT22;51343;51.396;6.656;2022-12-07T08:20:47;2.60;99.90
7894;DHT22;51343;51.396;6.656;2022-12-07T08:28:30;2.70;99.90
7894;DHT22;51343;51.396;6.656;2022-12-07T08:31:00;2.70;99.90
7894;DHT22;51343;51.396;6.656;2022-12-07T08:36:30;2.80;99.90
7894;DHT22;51343;51.396;6.656;2022-12-07T08:44:37;3.00;99.90
7894;DHT22;51343;51.396;6.656;2022-12-07T08:47:05;3.00;99.90
7894;DHT22;51343;51.396;6.656;2022-12-07T08:49:41;3.10;99.90
7894;DHT22;51343;51.396;6.656;2022-12-07T08:52:18;3.20;99.90
7894;DHT22;51343;51.396;6.656;2022-12-07T08:54:46;3.20;99.90
7894;DHT22;51343;51.396;6.656;2022-12-07T08:57:21;3.20;99.90
7894;DHT22;51343;51.396;6.656;2022-12-07T08:59:58;3.20;99.90
7894;DHT22;51343;51.396;6.656;2022-12-07T09:02:27;3.30;99.90
7894;DHT22;51343;51.396;6.656;2022-12-07T09:04:56;3.30;99.90
7894;DHT22;51343;51.396;6.656;2022-12-07T09:07:31;3.30;99.90
7894;DHT22;51343;51.396;6.656;2022-12-07T09:10:06;3.30;99.90
7894;DHT22;51343;51.396;6.656;2022-12-07T09:12:34;3.30;99.90
7894;DHT22;51343;51.396;6.656;2022-12-07T09:15:03;3.40;99.90
7894;DHT22;51343;51.396;6.656;2022-12-07T09:17:33;3.50;99.90
7894;DHT22;51343;51.396;6.656;2022-12-07T09:20:01;3.60;99.90
7894;DHT22;51343;51.396;6.656;2022-12-07T09:22:28;3.70;99.90
7894;DHT22;51343;51.396;6.656;2022-12-07T09:25:03;3.70;99.90
7894;DHT22;51343;51.396;6.656;2022-12-07T09:27:30;3.80;99.90
7894;DHT22;51343;51.396;6.656;2022-12-07T09:30:07;3.90;99.90
7894;DHT22;51343;51.396;6.656;2022-12-07T09:32:36;4.00;99.90
7894;DHT22;51343;51.396;6.656;2022-12-07T09:37:33;4.10;99.90
7894;DHT22;51343;51.396;6.656;2022-12-07T09:40:02;4.10;99.90
7894;DHT22;51343;51.396;6.656;2022-12-07T09:42:32;4.20;99.90
7894;DHT22;51343;51.396;6.656;2022-12-07T09:45:07;4.30;99.90
7894;DHT22;51343;51.396;6.656;2022-12-07T09:47:39;4.30;99.90
7894;DHT22;51343;51.396;6.656;2022-12-07T09:50:13;4.30;99.90
7894;DHT22;51343;51.396;6.656;2022-12-07T09:52:42;4.30;99.90
7894;DHT22;51343;51.396;6.656;2022-12-07T09:55:21;4.30;99.90
7894;DHT22;51343;51.396;6.656;2022-12-07T09:57:52;4.30;99.90
7894;DHT22;51343;51.396;6.656;2022-12-07T10:00:23;4.30;99.90
7894;DHT22;51343;51.396;6.656;2022-12-07T10:02:57;4.30;99.90
7894;DHT22;51343;51.396;6.656;2022-12-07T10:05:25;4.30;99.90
7894;DHT22;51343;51.396;6.656;2022-12-07T10:07:56;4.40;99.90
7894;DHT22;51343;51.396;6.656;2022-12-07T10:10:33;4.40;99.90
7894;DHT22;51343;51.396;6.656;2022-12-07T10:13:04;4.40;99.90
7894;DHT22;51343;51.396;6.656;2022-12-07T10:15:45;4.50;99.90
7894;DHT22;51343;51.396;6.656;2022-12-07T10:24:13;4.70;99.90
7894;DHT22;51343;51.396;6.656;2022-12-07T10:26:49;4.80;99.90
7894;DHT22;51343;51.396;6.656;2022-12-07T10:29:34;4.80;99.90
7894;DHT22;51343;51.396;6.656;2022-12-07T10:37:35;5.00;99.90
7894;DHT22;51343;51.396;6.656;2022-12-07T10:40:10;5.20;99.90
7894;DHT22;51343;51.396;6.656;2022-12-07T10:42:59;5.20;99.90
7894;DHT22;51343;51.396;6.656;2022-12-07T10:45:30;5.30;99.90
7894;DHT22;51343;51.396;6.656;2022-12-07T10:48:16;5.30;99.90
7894;DHT22;51343;51.396;6.656;2022-12-07T10:50:55;5.40;99.90
7894;DHT22;51343;51.396;6.656;2022-12-07T10:53:54;5.60;99.90
7894;DHT22;51343;51.396;6.656;2022-12-07T10:59:36;5.80;99.90
7894;DHT22;51343;51.396;6.656;2022-12-07T11:02:18;5.90;99.90
7894;DHT22;51343;51.396;6.656;2022-12-07T11:04:56;6.00;99.90
7894;DHT22;51343;51.396;6.656;2022-12-07T11:07:28;6.20;99.90
7894;DHT22;51343;51.396;6.656;2022-12-07T11:10:02;6.20;99.90
7894;DHT22;51343;51.396;6.656;2022-12-07T11:12:35;6.40;99.90
7894;DHT22;51343;51.396;6.656;2022-12-07T11:15:10;6.60;99.90
7894;DHT22;51343;51.396;6.656;2022-12-07T11:17:42;6.70;99.90
7894;DHT22;51343;51.396;6.656;2022-12-07T11:20:14;6.60;99.90
7894;DHT22;51343;51.396;6.656;2022-12-07T11:22:47;6.60;99.90
7894;DHT22;51343;51.396;6.656;2022-12-07T11:25:21;6.50;99.90
7894;DHT22;51343;51.396;6.656;2022-12-07T11:27:53;6.40;99.90
7894;DHT22;51343;51.396;6.656;2022-12-07T11:30:26;6.50;99.90
7894;DHT22;51343;51.396;6.656;2022-12-07T11:33:03;6.60;99.90
7894;DHT22;51343;51.396;6.656;2022-12-07T11:35:54;6.70;99.90
7894;DHT22;51343;51.396;6.656;2022-12-07T11:38:24;6.70;99.90
7894;DHT22;51343;51.396;6.656;2022-12-07T11:40:56;6.60;99.90
7894;DHT22;51343;51.396;6.656;2022-12-07T11:43:49;6.60;99.90
7894;DHT22;51343;51.396;6.656;2022-12-07T11:46:18;6.70;99.90
7894;DHT22;51343;51.396;6.656;2022-12-07T11:48:50;6.70;99.90
7894;DHT22;51343;51.396;6.656;2022-12-07T11:51:24;6.70;99.90
7894;DHT22;51343;51.396;6.656;2022-12-07T11:53:54;6.60;99.90
7894;DHT22;51343;51.396;6.656;2022-12-07T11:56:22;6.60;99.90
7894;DHT22;51343;51.396;6.656;2022-12-07T11:58:53;6.60;99.90
7894;DHT22;51343;51.396;6.656;2022-12-07T12:01:37;6.50;99.90
7894;DHT22;51343;51.396;6.656;2022-12-07T12:04:23;6.50;99.90
7894;DHT22;51343;51.396;6.656;2022-12-07T12:07:07;6.50;99.90
7894;DHT22;51343;51.396;6.656;2022-12-07T12:09:34;6.50;99.90
7894;DHT22;51343;51.396;6.656;2022-12-07T12:12:07;6.40;99.90
7894;DHT22;51343;51.396;6.656;2022-12-07T12:14:42;6.40;99.90
7894;DHT22;51343;51.396;6.656;2022-12-07T12:19:44;6.50;99.90
7894;DHT22;51343;51.396;6.656;2022-12-07T12:22:26;6.40;99.90
7894;DHT22;51343;51.396;6.656;2022-12-07T12:24:58;6.40;99.90
7894;DHT22;51343;51.396;6.656;2022-12-07T12:27:31;6.40;99.90
7894;DHT22;51343;51.396;6.656;2022-12-07T12:30:02;6.40;99.90
7894;DHT22;51343;51.396;6.656;2022-12-07T12:32:34;6.40;99.90
7894;DHT22;51343;51.396;6.656;2022-12-07T12:40:49;6.10;99.90
7894;DHT22;51343;51.396;6.656;2022-12-07T12:49:13;6.20;99.90
7894;DHT22;51343;51.396;6.656;2022-12-07T12:51:41;6.30;99.90
7894;DHT22;51343;51.396;6.656;2022-12-07T12:54:11;6.30;99.90
7894;DHT22;51343;51.396;6.656;2022-12-07T12:56:48;6.40;99.90
7894;DHT22;51343;51.396;6.656;2022-12-07T13:02:06;6.40;99.90
7894;DHT22;51343;51.396;6.656;2022-12-07T13:04:36;6.40;99.90
7894;DHT22;51343;51.396;6.656;2022-12-07T13:09:56;6.40;99.90
7894;DHT22;51343;51.396;6.656;2022-12-07T13:12:24;6.40;99.90
7894;DHT22;51343;51.396;6.656;2022-12-07T13:14:56;6.40;99.90
7894;DHT22;51343;51.396;6.656;2022-12-07T13:20:39;6.50;99.90
7894;DHT22;51343;51.396;6.656;2022-12-07T13:23:01;6.50;99.90
7894;DHT22;51343;51.396;6.656;2022-12-07T13:28:18;6.50;99.90
7894;DHT22;51343;51.396;6.656;2022-12-07T13:30:46;6.50;99.90
7894;DHT22;51343;51.396;6.656;2022-12-07T13:33:15;6.50;99.90
7894;DHT22;51343;51.396;6.656;2022-12-07T13:35:45;6.40;99.90
7894;DHT22;51343;51.396;6.656;2022-12-07T13:38:23;6.40;99.90
7894;DHT22;51343;51.396;6.656;2022-12-07T13:41:01;6.30;99.90
7894;DHT22;51343;51.396;6.656;2022-12-07T13:43:31;6.30;99.90
7894;DHT22;51343;51.396;6.656;2022-12-07T13:45:57;6.40;99.90
7894;DHT22;51343;51.396;6.656;2022-12-07T13:48:36;6.30;99.90
7894;DHT22;51343;51.396;6.656;2022-12-07T13:53:53;6.30;99.90
7894;DHT22;51343;51.396;6.656;2022-12-07T13:56:22;6.30;99.90
7894;DHT22;51343;51.396;6.656;2022-12-07T13:58:54;6.20;99.90
7894;DHT22;51343;51.396;6.656;2022-12-07T14:01:23;6.20;99.90
7894;DHT22;51343;51.396;6.656;2022-12-07T14:03:51;6.20;99.90
7894;DHT22;51343;51.396;6.656;2022-12-07T14:06:23;6.10;99.90
7894;DHT22;51343;51.396;6.656;2022-12-07T14:09:16;6.10;99.90
7894;DHT22;51343;51.396;6.656;2022-12-07T14:11:45;6.10;99.90
7894;DHT22;51343;51.396;6.656;2022-12-07T14:14:15;6.10;99.90
7894;DHT22;51343;51.396;6.656;2022-12-07T14:16:59;6.00;99.90
7894;DHT22;51343;51.396;6.656;2022-12-07T14:19:45;5.90;99.90
7894;DHT22;51343;51.396;6.656;2022-12-07T14:22:22;5.80;99.90
7894;DHT22;51343;51.396;6.656;2022-12-07T14:24:49;5.70;99.90
7894;DHT22;51343;51.396;6.656;2022-12-07T14:27:29;5.60;99.90
7894;DHT22;51343;51.396;6.656;2022-12-07T14:30:03;5.50;99.90
7894;DHT22;51343;51.396;6.656;2022-12-07T14:32:34;5.40;99.90
7894;DHT22;51343;51.396;6.656;2022-12-07T14:35:08;5.40;99.90
7894;DHT22;51343;51.396;6.656;2022-12-07T14:37:37;5.40;99.90
7894;DHT22;51343;51.396;6.656;2022-12-07T14:40:06;5.30;99.90
7894;DHT22;51343;51.396;6.656;2022-12-07T14:42:34;5.30;99.90
7894;DHT22;51343;51.396;6.656;2022-12-07T14:45:05;5.20;99.90
7894;DHT22;51343;51.396;6.656;2022-12-07T14:47:36;5.10;99.90
7894;DHT22;51343;51.396;6.656;2022-12-07T14:50:07;5.10;99.90
7894;DHT22;51343;51.396;6.656;2022-12-07T14:52:34;5.00;99.90
7894;DHT22;51343;51.396;6.656;2022-12-07T14:55:04;4.90;99.90
7894;DHT22;51343;51.396;6.656;2022-12-07T14:57:31;4.80;99.90
7894;DHT22;51343;51.396;6.656;2022-12-07T15:00:01;4.70;99.90
7894;DHT22;51343;51.396;6.656;2022-12-07T15:02:36;4.60;99.90
7894;DHT22;51343;51.396;6.656;2022-12-07T15:05:03;4.50;99.90
7894;DHT22;51343;51.396;6.656;2022-12-07T15:07:36;4.50;99.90
7894;DHT22;51343;51.396;6.656;2022-12-07T15:10:03;4.30;99.90
7894;DHT22;51343;51.396;6.656;2022-12-07T15:12:30;4.30;99.90
7894;DHT22;51343;51.396;6.656;2022-12-07T15:14:57;4.10;99.90
7894;DHT22;51343;51.396;6.656;2022-12-07T15:17:26;4.00;99.90
7894;DHT22;51343;51.396;6.656;2022-12-07T15:19:55;3.90;99.90
7894;DHT22;51343;51.396;6.656;2022-12-07T15:22:22;3.90;99.90
7894;DHT22;51343;51.396;6.656;2022-12-07T15:24:49;3.80;99.90
7894;DHT22;51343;51.396;6.656;2022-12-07T15:27:16;3.70;99.90
7894;DHT22;51343;51.396;6.656;2022-12-07T15:29:51;3.70;99.90
7894;DHT22;51343;51.396;6.656;2022-12-07T15:32:19;3.70;99.90
7894;DHT22;51343;51.396;6.656;2022-12-07T15:34:48;3.80;99.90
7894;DHT22;51343;51.396;6.656;2022-12-07T15:37:17;3.90;99.90
7894;DHT22;51343;51.396;6.656;2022-12-07T15:39:44;3.90;99.90
7894;DHT22;51343;51.396;6.656;2022-12-07T15:42:11;4.00;99.90
7894;DHT22;51343;51.396;6.656;2022-12-07T15:44:43;4.00;99.90
7894;DHT22;51343;51.396;6.656;2022-12-07T15:47:27;4.10;99.90
7894;DHT22;51343;51.396;6.656;2022-12-07T15:49:55;4.10;99.90
7894;DHT22;51343;51.396;6.656;2022-12-07T15:52:25;4.10;99.90
7894;DHT22;51343;51.396;6.656;2022-12-07T15:54:52;4.00;99.90
7894;DHT22;51343;51.396;6.656;2022-12-07T15:57:19;4.10;99.90
7894;DHT22;51343;51.396;6.656;2022-12-07T15:59:46;4.10;99.90
7894;DHT22;51343;51.396;6.656;2022-12-07T16:02:13;4.20;99.90
7894;DHT22;51343;51.396;6.656;2022-12-07T16:04:42;4.30;99.90
7894;DHT22;51343;51.396;6.656;2022-12-07T16:09:45;4.30;99.90
7894;DHT22;51343;51.396;6.656;2022-12-07T16:12:16;4.40;99.90
7894;DHT22;51343;51.396;6.656;2022-12-07T16:14:49;4.40;99.90
7894;DHT22;51343;51.396;6.656;2022-12-07T16:17:16;4.50;99.90
7894;DHT22;51343;51.396;6.656;2022-12-07T16:19:53;4.50;99.90
7894;DHT22;51343;51.396;6.656;2022-12-07T16:22:21;4.50;99.90
7894;DHT22;51343;51.396;6.656;2022-12-07T16:24:58;4.50;99.90
7894;DHT22;51343;51.396;6.656;2022-12-07T16:27:25;4.60;99.90
7894;DHT22;51343;51.396;6.656;2022-12-07T16:29:52;4.60;99.90
7894;DHT22;51343;51.396;6.656;2022-12-07T16:32:35;4.50;99.90
7894;DHT22;51343;51.396;6.656;2022-12-07T16:37:42;4.60;99.90
7894;DHT22;51343;51.396;6.656;2022-12-07T16:42:50;4.60;99.90
7894;DHT22;51343;51.396;6.656;2022-12-07T16:45:21;4.60;99.90
7894;DHT22;51343;51.396;6.656;2022-12-07T16:47:50;4.70;99.90
7894;DHT22;51343;51.396;6.656;2022-12-07T16:50:17;4.70;99.90
7894;DHT22;51343;51.396;6.656;2022-12-07T16:55:15;4.80;99.90
7894;DHT22;51343;51.396;6.656;2022-12-07T16:57:42;4.80;99.90
7894;DHT22;51343;51.396;6.656;2022-12-07T17:02:44;4.80;99.90
7894;DHT22;51343;51.396;6.656;2022-12-07T17:05:17;4.80;99.90
7894;DHT22;51343;51.396;6.656;2022-12-07T17:07:57;4.80;99.90
7894;DHT22;51343;51.396;6.656;2022-12-07T17:10:25;4.70;99.90
7894;DHT22;51343;51.396;6.656;2022-12-07T17:12:57;4.70;99.90
7894;DHT22;51343;51.396;6.656;2022-12-07T17:15:25;4.70;99.90
7894;DHT22;51343;51.396;6.656;2022-12-07T17:17:53;4.60;99.90
7894;DHT22;51343;51.396;6.656;2022-12-07T17:20:21;4.60;99.90
7894;DHT22;51343;51.396;6.656;2022-12-07T17:22:49;4.50;99.90
7894;DHT22;51343;51.396;6.656;2022-12-07T17:25:18;4.50;99.90
7894;DHT22;51343;51.396;6.656;2022-12-07T17:27:45;4.50;99.90
7894;DHT22;51343;51.396;6.656;2022-12-07T17:32:52;4.50;99.90
7894;DHT22;51343;51.396;6.656;2022-12-07T17:35:21;4.40;99.90
7894;DHT22;51343;51.396;6.656;2022-12-07T17:37:49;4.40;99.90
7894;DHT22;51343;51.396;6.656;2022-12-07T17:40:16;4.40;99.90
7894;DHT22;51343;51.396;6.656;2022-12-07T17:42:49;4.40;99.90
7894;DHT22;51343;51.396;6.656;2022-12-07T17:45:16;4.30;99.90
7894;DHT22;51343;51.396;6.656;2022-12-07T17:48:00;4.30;99.90
7894;DHT22;51343;51.396;6.656;2022-12-07T17:50:30;4.30;99.90
7894;DHT22;51343;51.396;6.656;2022-12-07T17:53:16;4.30;99.90
7894;DHT22;51343;51.396;6.656;2022-12-07T17:55:47;4.30;99.90
7894;DHT22;51343;51.396;6.656;2022-12-07T17:58:14;4.20;99.90
7894;DHT22;51343;51.396;6.656;2022-12-07T18:00:41;4.30;99.90
7894;DHT22;51343;51.396;6.656;2022-12-07T18:03:08;4.20;99.90
7894;DHT22;51343;51.396;6.656;2022-12-07T18:05:37;4.20;99.90
7894;DHT22;51343;51.396;6.656;2022-12-07T18:08:04;4.20;99.90